createdAt,value
2019-03-15T00:01:26.420Z,98368.11
2019-03-15T00:03:54.229Z,98374.48
2019-03-15T00:06:21.988Z,98379.23
2019-03-15T00:08:55.109Z,98382.81
2019-03-15T00:11:22.826Z,98385.44
2019-03-15T00:13:50.627Z,98397.69
2019-03-15T00:16:18.374Z,98405.39
2019-03-15T00:18:46.992Z,98411.89
2019-03-15T00:21:14.959Z,98414.52
2019-03-15T00:23:42.695Z,98417.14
2019-03-15T00:26:10.482Z,98423.20
2019-03-15T00:28:38.385Z,98415.22
2019-03-15T00:31:06.207Z,98421.33
2019-03-15T00:33:33.978Z,98420.87
2019-03-15T00:36:01.772Z,98430.73
2019-03-15T00:38:29.790Z,98442.20
2019-03-15T00:40:57.573Z,98440.44
2019-03-15T00:43:25.422Z,98445.81
2019-03-15T00:45:53.194Z,98448.23
2019-03-15T00:48:21.115Z,98448.52
2019-03-15T00:50:48.913Z,98445.05
2019-03-15T00:53:16.721Z,98445.48
2019-03-15T00:55:45.468Z,98443.44
2019-03-15T00:58:13.479Z,98454.78
2019-03-15T01:00:41.287Z,98462.21
2019-03-15T01:03:09.063Z,98464.30
2019-03-15T01:05:36.833Z,98459.52
2019-03-15T01:08:04.647Z,98461.42
2019-03-15T01:10:32.401Z,98451.41
2019-03-15T01:13:00.207Z,98455.52
2019-03-15T01:15:27.973Z,98463.67
2019-03-15T01:17:55.735Z,98469.70
2019-03-15T01:20:23.511Z,98465.41
2019-03-15T01:22:51.381Z,98462.45
2019-03-15T01:25:19.089Z,98456.88
2019-03-15T01:27:46.910Z,98465.52
2019-03-15T01:30:14.635Z,98461.05
2019-03-15T01:32:42.382Z,98462.36
2019-03-15T01:35:10.196Z,98456.44
2019-03-15T01:37:38.264Z,98462.92
2019-03-15T01:40:06.296Z,98475.33
2019-03-15T01:42:34.133Z,98479.08
2019-03-15T01:45:01.906Z,98483.20
2019-03-15T01:47:29.708Z,98491.70
2019-03-15T01:49:58.611Z,98489.58
2019-03-15T01:52:26.496Z,98484.19
2019-03-15T01:54:54.215Z,98483.86
2019-03-15T01:57:21.998Z,98478.31
2019-03-15T01:59:49.770Z,98479.92
2019-03-15T02:02:17.625Z,98473.25
2019-03-15T02:04:45.413Z,98480.31
2019-03-15T02:07:13.343Z,98488.04
2019-03-15T02:09:41.087Z,98495.92
2019-03-15T02:12:08.880Z,98495.88
2019-03-15T02:14:36.702Z,98491.11
2019-03-15T02:17:04.473Z,98491.41
2019-03-15T02:19:32.212Z,98494.80
2019-03-15T02:22:00.004Z,98491.48
2019-03-15T02:24:27.838Z,98488.69
2019-03-15T02:26:55.618Z,98490.48
2019-03-15T02:29:23.425Z,98494.72
2019-03-15T02:31:51.198Z,98500.41
2019-03-15T02:34:18.972Z,98497.34
2019-03-15T02:36:46.759Z,98499.95
2019-03-15T02:39:14.592Z,98516.64
2019-03-15T02:41:42.400Z,98510.93
2019-03-15T02:44:10.206Z,98502.05
2019-03-15T02:46:37.981Z,98505.13
2019-03-15T02:49:06.163Z,98502.50
2019-03-15T02:51:33.953Z,98509.57
2019-03-15T02:54:01.737Z,98507.98
2019-03-15T02:56:29.528Z,98519.48
2019-03-15T02:58:57.309Z,98529.17
2019-03-15T03:01:25.109Z,98526.38
2019-03-15T03:03:52.897Z,98525.38
2019-03-15T03:06:20.709Z,98529.02
2019-03-15T03:08:48.907Z,98524.90
2019-03-15T03:11:16.708Z,98518.52
2019-03-15T03:13:44.484Z,98516.53
2019-03-15T03:16:12.292Z,98522.77
2019-03-15T03:18:40.286Z,98516.19
2019-03-15T03:21:08.063Z,98514.86
2019-03-15T03:23:35.849Z,98521.56
2019-03-15T03:26:03.652Z,98526.83
2019-03-15T03:28:31.412Z,98520.91
2019-03-15T03:30:59.173Z,98530.27
2019-03-15T03:33:26.966Z,98529.13
2019-03-15T03:35:54.752Z,98520.12
2019-03-15T03:38:22.548Z,98530.91
2019-03-15T03:40:50.321Z,98522.41
2019-03-15T03:43:18.064Z,98525.83
2019-03-15T03:45:45.868Z,98529.09
2019-03-15T03:48:15.810Z,98527.14
2019-03-15T03:50:43.522Z,98526.45
2019-03-15T03:53:11.337Z,98524.48
2019-03-15T03:55:39.156Z,98529.20
2019-03-15T03:58:06.899Z,98525.94
2019-03-15T04:00:34.670Z,98527.75
2019-03-15T04:03:02.462Z,98521.09
2019-03-15T04:05:30.265Z,98523.37
2019-03-15T04:07:58.093Z,98527.80
2019-03-15T04:10:25.982Z,98520.06
2019-03-15T04:12:53.786Z,98521.55
2019-03-15T04:15:21.621Z,98521.39
2019-03-15T04:17:49.443Z,98519.76
2019-03-15T04:20:17.259Z,98530.53
2019-03-15T04:22:45.041Z,98525.30
2019-03-15T04:25:12.805Z,98533.18
2019-03-15T04:27:40.816Z,98526.95
2019-03-15T04:30:09.178Z,98515.83
2019-03-15T04:32:37.008Z,98515.56
2019-03-15T04:35:05.273Z,98525.41
2019-03-15T04:37:33.036Z,98533.00
2019-03-15T04:40:00.845Z,98543.52
2019-03-15T04:42:28.608Z,98545.48
2019-03-15T04:44:56.430Z,98530.90
2019-03-15T04:47:24.468Z,98527.47
2019-03-15T04:49:52.274Z,98531.88
2019-03-15T04:52:20.073Z,98505.27
2019-03-15T04:54:47.831Z,98520.00
2019-03-15T04:57:15.624Z,98519.64
2019-03-15T04:59:43.401Z,98525.23
2019-03-15T05:02:11.166Z,98528.45
2019-03-15T05:04:38.960Z,98526.80
2019-03-15T05:07:06.709Z,98531.39
2019-03-15T05:09:34.519Z,98536.31
2019-03-15T05:12:02.265Z,98544.03
2019-03-15T05:14:30.092Z,98543.17
2019-03-15T05:16:57.871Z,98539.27
2019-03-15T05:19:25.682Z,98544.32
2019-03-15T05:21:53.479Z,98548.91
2019-03-15T05:24:21.267Z,98552.19
2019-03-15T05:26:49.108Z,98555.41
2019-03-15T05:29:16.900Z,98535.11
2019-03-15T05:31:44.724Z,98527.39
2019-03-15T05:34:12.468Z,98521.95
2019-03-15T05:36:40.209Z,98529.98
2019-03-15T05:39:07.976Z,98532.28
2019-03-15T05:41:35.760Z,98537.33
2019-03-15T05:44:03.563Z,98532.56
2019-03-15T05:46:31.317Z,98530.41
2019-03-15T05:48:59.169Z,98535.31
2019-03-15T05:51:26.979Z,98545.63
2019-03-15T05:53:54.769Z,98528.92
2019-03-15T05:56:22.600Z,98522.14
2019-03-15T05:58:50.547Z,98537.55
2019-03-15T06:01:18.330Z,98535.58
2019-03-15T06:03:48.862Z,98530.45
2019-03-15T06:06:15.787Z,98530.74
2019-03-15T06:08:43.591Z,98538.43
2019-03-15T06:11:11.387Z,98538.73
2019-03-15T06:13:39.165Z,98546.41
2019-03-15T06:16:07.031Z,98542.61
2019-03-15T06:18:34.826Z,98545.67
2019-03-15T06:21:02.607Z,98542.50
2019-03-15T06:23:30.473Z,98539.56
2019-03-15T06:25:58.251Z,98539.39
2019-03-15T06:28:27.295Z,98543.09
2019-03-15T06:30:55.098Z,98533.70
2019-03-15T06:33:22.863Z,98538.44
2019-03-15T06:35:50.664Z,98535.81
2019-03-15T06:38:18.405Z,98537.41
2019-03-15T06:40:46.196Z,98544.11
2019-03-15T06:43:13.963Z,98548.19
2019-03-15T06:45:42.085Z,98542.09
2019-03-15T06:48:10.224Z,98538.14
2019-03-15T06:50:38.053Z,98532.20
2019-03-15T06:53:05.823Z,98531.97
2019-03-15T06:55:33.917Z,98532.77
2019-03-15T06:58:01.792Z,98526.04
2019-03-15T07:00:29.601Z,98537.17
2019-03-15T07:02:57.369Z,98529.97
2019-03-15T07:05:25.148Z,98536.20
2019-03-15T07:07:52.934Z,98529.31
2019-03-15T07:10:20.803Z,98525.22
2019-03-15T07:15:26.868Z,98511.72
2019-03-15T07:17:54.731Z,98514.26
2019-03-15T07:20:22.514Z,98517.44
2019-03-15T07:22:50.300Z,98518.02
2019-03-15T07:25:18.112Z,98512.09
2019-03-15T07:27:46.086Z,98506.86
2019-03-15T07:30:13.973Z,98502.04
2019-03-15T07:32:41.743Z,98507.20
2019-03-15T07:35:09.500Z,98505.68
2019-03-15T07:37:37.433Z,98502.02
2019-03-15T07:40:06.165Z,98492.92
2019-03-15T07:42:33.970Z,98496.03
2019-03-15T07:45:01.806Z,98496.02
2019-03-15T07:47:29.672Z,98497.98
2019-03-15T07:49:57.469Z,98501.40
2019-03-15T07:52:25.222Z,98508.92
2019-03-15T07:54:53.051Z,98502.93
2019-03-15T07:57:20.891Z,98510.04
2019-03-15T07:59:48.713Z,98503.81
2019-03-15T08:02:16.500Z,98501.48
2019-03-15T08:04:44.292Z,98502.20
2019-03-15T08:07:12.121Z,98501.97
2019-03-15T08:09:39.927Z,98499.26
2019-03-15T08:12:07.695Z,98496.00
2019-03-15T08:14:35.505Z,98502.00
2019-03-15T08:17:03.279Z,98500.09
2019-03-15T08:19:31.090Z,98479.86
2019-03-15T08:21:58.896Z,98500.87
2019-03-15T08:24:26.673Z,98506.01
2019-03-15T08:26:54.474Z,98511.36
2019-03-15T08:29:22.288Z,98518.30
2019-03-15T08:31:50.120Z,98519.62
2019-03-15T08:34:17.900Z,98515.97
2019-03-15T08:36:45.739Z,98512.59
2019-03-15T08:39:13.489Z,98509.55
2019-03-15T08:41:41.283Z,98509.95
2019-03-15T08:44:09.106Z,98507.82
2019-03-15T08:46:36.909Z,98506.81
2019-03-15T08:49:04.742Z,98501.95
2019-03-15T08:51:32.525Z,98497.48
2019-03-15T08:54:00.265Z,98491.75
2019-03-15T08:56:28.000Z,98490.52
2019-03-15T08:58:55.816Z,98481.12
2019-03-15T09:01:23.970Z,98474.42
2019-03-15T09:03:51.929Z,98466.16
2019-03-15T09:06:19.699Z,98468.50
2019-03-15T09:08:47.828Z,98476.35
2019-03-15T09:11:15.621Z,98463.61
2019-03-15T09:13:43.415Z,98462.77
2019-03-15T09:16:11.220Z,98467.17
2019-03-15T09:18:39.068Z,98470.30
2019-03-15T09:21:06.862Z,98469.58
2019-03-15T09:23:34.649Z,98471.78
2019-03-15T09:26:02.466Z,98464.33
2019-03-15T09:28:30.257Z,98462.90
2019-03-15T09:30:58.069Z,98456.09
2019-03-15T09:33:25.864Z,98450.85
2019-03-15T09:35:53.685Z,98450.75
2019-03-15T09:38:21.438Z,98446.77
2019-03-15T09:40:49.261Z,98446.11
2019-03-15T09:43:17.057Z,98443.25
2019-03-15T09:45:44.850Z,98436.45
2019-03-15T09:48:12.626Z,98433.25
2019-03-15T09:50:51.018Z,98424.38
2019-03-15T09:53:10.089Z,98426.28
2019-03-15T09:55:37.888Z,98421.73
2019-03-15T09:58:05.791Z,98425.11
2019-03-15T10:00:33.586Z,98425.41
2019-03-15T10:03:01.323Z,98432.42
2019-03-15T10:05:29.085Z,98434.39
2019-03-15T10:07:56.931Z,98432.33
2019-03-15T10:10:24.692Z,98422.48
2019-03-15T10:13:05.078Z,98398.23
2019-03-15T10:15:22.290Z,98383.64
2019-03-15T10:17:50.141Z,98391.89
2019-03-15T10:20:17.920Z,98379.88
2019-03-15T10:22:45.820Z,98389.68
2019-03-15T10:25:13.678Z,98393.87
2019-03-15T10:27:41.768Z,98401.30
2019-03-15T10:30:11.567Z,98383.45
2019-03-15T10:32:39.377Z,98381.86
2019-03-15T10:35:07.762Z,98380.89
2019-03-15T10:37:35.635Z,98377.09
2019-03-15T10:40:04.428Z,98375.98
2019-03-15T10:42:32.248Z,98366.57
2019-03-15T10:44:59.980Z,98369.83
2019-03-15T10:47:27.753Z,98369.22
2019-03-15T10:49:55.518Z,98357.51
2019-03-15T10:52:23.384Z,98359.02
2019-03-15T10:54:51.153Z,98351.08
2019-03-15T10:57:18.962Z,98353.95
2019-03-15T10:59:46.694Z,98348.17
2019-03-15T11:02:14.472Z,98340.53
2019-03-15T11:04:42.318Z,98337.91
2019-03-15T11:07:10.090Z,98330.36
2019-03-15T11:09:37.871Z,98326.97
2019-03-15T11:12:05.659Z,98323.15
2019-03-15T11:14:33.403Z,98319.95
2019-03-15T11:17:01.402Z,98315.73
2019-03-15T11:19:29.182Z,98319.20
2019-03-15T11:21:56.977Z,98317.16
2019-03-15T11:24:24.761Z,98313.62
2019-03-15T11:26:52.484Z,98312.50
2019-03-15T11:29:20.281Z,98314.40
2019-03-15T11:31:48.128Z,98298.06
2019-03-15T11:34:15.907Z,98303.20
2019-03-15T11:36:43.724Z,98290.91
2019-03-15T11:39:11.529Z,98286.84
2019-03-15T11:41:39.312Z,98288.11
2019-03-15T11:44:07.092Z,98285.24
2019-03-15T11:46:34.870Z,98287.17
2019-03-15T11:49:02.931Z,98289.40
2019-03-15T11:51:30.739Z,98287.97
2019-03-15T11:53:58.514Z,98293.48
2019-03-15T11:56:27.483Z,98286.59
2019-03-15T11:58:55.234Z,98284.78
2019-03-15T12:01:23.054Z,98290.50
2019-03-15T12:03:53.271Z,98293.61
2019-03-15T12:06:20.510Z,98284.31
2019-03-15T12:08:48.327Z,98274.27
2019-03-15T12:11:16.130Z,98278.70
2019-03-15T12:13:43.947Z,98277.42
2019-03-15T12:16:11.769Z,98273.27
2019-03-15T12:18:39.564Z,98265.13
2019-03-15T12:21:07.372Z,98273.83
2019-03-15T12:23:35.121Z,98272.83
2019-03-15T12:26:02.914Z,98268.25
2019-03-15T12:28:30.710Z,98259.66
2019-03-15T12:30:58.514Z,98259.13
2019-03-15T12:33:26.278Z,98245.94
2019-03-15T12:35:54.103Z,98256.88
2019-03-15T12:38:21.971Z,98255.97
2019-03-15T12:40:49.724Z,98248.23
2019-03-15T12:43:17.490Z,98256.64
2019-03-15T12:45:45.307Z,98254.55
2019-03-15T12:48:13.245Z,98255.80
2019-03-15T12:50:41.022Z,98255.78
2019-03-15T12:53:08.820Z,98240.43
2019-03-15T12:55:36.592Z,98245.08
2019-03-15T12:58:04.407Z,98255.92
2019-03-15T13:00:32.466Z,98239.17
2019-03-15T13:03:00.480Z,98235.77
2019-03-15T13:05:28.330Z,98242.06
2019-03-15T13:08:01.279Z,98238.02
2019-03-15T13:10:29.068Z,98246.61
2019-03-15T13:12:57.147Z,98237.45
2019-03-15T13:15:24.994Z,98232.09
2019-03-15T13:17:52.951Z,98226.52
2019-03-15T13:20:20.745Z,98233.98
2019-03-15T13:22:48.735Z,98233.31
2019-03-15T13:25:16.537Z,98234.15
2019-03-15T13:27:44.683Z,98224.47
2019-03-15T13:30:12.687Z,98223.63
2019-03-15T13:32:40.520Z,98213.95
2019-03-15T13:35:08.548Z,98215.85
2019-03-15T13:37:36.439Z,98211.84
2019-03-15T13:40:05.266Z,98212.83
2019-03-15T13:42:33.100Z,98194.10
2019-03-15T13:45:00.997Z,98199.45
2019-03-15T13:47:28.798Z,98192.23
2019-03-15T13:49:56.550Z,98199.26
2019-03-15T13:52:24.374Z,98202.17
2019-03-15T13:54:52.183Z,98213.36
2019-03-15T13:57:21.375Z,98205.13
2019-03-15T13:59:49.657Z,98206.98
2019-03-15T14:02:17.460Z,98202.77
2019-03-15T14:04:45.327Z,98214.25
2019-03-15T14:07:13.243Z,98227.30
2019-03-15T14:09:41.049Z,98204.72
2019-03-15T14:12:08.783Z,98198.68
2019-03-15T14:14:36.576Z,98205.85
2019-03-15T14:17:04.526Z,98209.22
2019-03-15T14:19:32.297Z,98205.60
2019-03-15T14:22:00.162Z,98211.66
2019-03-15T14:24:27.969Z,98210.62
2019-03-15T14:26:55.786Z,98210.23
2019-03-15T14:29:23.671Z,98212.19
2019-03-15T14:31:51.545Z,98211.94
2019-03-15T14:34:19.353Z,98211.31
2019-03-15T14:36:47.240Z,98187.36
2019-03-15T14:39:15.194Z,98207.34
2019-03-15T14:41:43.108Z,98204.69
2019-03-15T14:44:10.953Z,98205.84
2019-03-15T14:46:38.795Z,98204.09
2019-03-15T14:49:06.673Z,98201.48
2019-03-15T14:51:34.563Z,98206.19
2019-03-15T14:54:02.455Z,98205.81
2019-03-15T14:56:30.269Z,98205.61
2019-03-15T14:58:58.031Z,98208.71
2019-03-15T15:01:25.881Z,98215.29
2019-03-15T15:03:53.738Z,98213.30
2019-03-15T15:06:21.542Z,98219.08
2019-03-15T15:08:49.335Z,98215.89
2019-03-15T15:11:17.137Z,98220.25
2019-03-15T15:13:44.957Z,98222.05
2019-03-15T15:16:12.792Z,98226.06
2019-03-15T15:18:40.599Z,98237.32
2019-03-15T15:21:08.465Z,98231.64
2019-03-15T15:23:36.304Z,98237.28
2019-03-15T15:26:04.106Z,98234.16
2019-03-15T15:28:32.250Z,98230.05
2019-03-15T15:31:00.055Z,98230.64
2019-03-15T15:33:27.845Z,98235.82
2019-03-15T15:35:55.666Z,98241.88
2019-03-15T15:38:23.844Z,98244.33
2019-03-15T15:40:51.697Z,98227.59
2019-03-15T15:43:24.211Z,98231.33
2019-03-15T15:45:52.048Z,98233.68
2019-03-15T15:48:19.882Z,98228.55
2019-03-15T15:50:49.448Z,98223.61
2019-03-15T15:53:17.223Z,98217.42
2019-03-15T15:55:45.084Z,98213.50
2019-03-15T15:58:18.278Z,98213.60
2019-03-15T16:00:45.798Z,98213.73
2019-03-15T16:03:13.599Z,98222.78
2019-03-15T16:05:41.417Z,98220.31
2019-03-15T16:08:09.312Z,98211.28
2019-03-15T16:10:37.111Z,98219.04
2019-03-15T16:13:16.623Z,98210.53
2019-03-15T16:15:34.685Z,98225.63
2019-03-15T16:18:02.523Z,98213.30
2019-03-15T16:20:30.627Z,98209.06
2019-03-15T16:22:58.468Z,98212.65
2019-03-15T16:25:26.309Z,98215.73
2019-03-15T16:27:56.886Z,98222.58
2019-03-15T16:30:24.715Z,98224.23
2019-03-15T16:32:52.494Z,98229.55
2019-03-15T16:35:20.336Z,98232.84
2019-03-15T16:37:48.360Z,98236.23
2019-03-15T16:40:16.288Z,98224.59
2019-03-15T16:42:44.085Z,98236.02
2019-03-15T16:45:15.229Z,98237.91
2019-03-15T16:47:43.379Z,98227.31
2019-03-15T16:50:11.353Z,98233.09
2019-03-15T16:52:39.194Z,98221.30
2019-03-15T16:55:08.295Z,98219.28
2019-03-15T16:57:36.288Z,98234.03
2019-03-15T17:00:04.915Z,98225.70
2019-03-15T17:02:32.767Z,98231.27
2019-03-15T17:05:00.585Z,98233.82
2019-03-15T17:07:28.421Z,98241.19
2019-03-15T17:09:56.285Z,98244.73
2019-03-15T17:12:24.076Z,98239.95
2019-03-15T17:14:51.911Z,98236.56
2019-03-15T17:17:19.713Z,98243.44
2019-03-15T17:19:48.191Z,98252.25
2019-03-15T17:22:16.729Z,98249.78
2019-03-15T17:24:45.031Z,98262.39
2019-03-15T17:27:13.354Z,98259.59
2019-03-15T17:29:41.522Z,98269.31
2019-03-15T17:32:09.734Z,98276.19
2019-03-15T17:34:38.028Z,98270.70
2019-03-15T17:37:07.132Z,98275.56
2019-03-15T17:39:35.359Z,98278.27
2019-03-15T17:42:03.899Z,98279.44
2019-03-15T17:44:32.303Z,98283.48
2019-03-15T17:47:00.270Z,98292.56
2019-03-15T17:49:30.856Z,98287.14
2019-03-15T17:51:58.655Z,98298.16
2019-03-15T17:54:26.456Z,98293.31
2019-03-15T17:56:54.245Z,98293.45
2019-03-15T17:59:22.083Z,98286.94
2019-03-15T18:01:50.033Z,98292.77
2019-03-15T18:04:17.842Z,98306.70
2019-03-15T18:06:45.630Z,98306.70
2019-03-15T18:09:13.475Z,98304.84
2019-03-15T18:11:41.270Z,98313.06
2019-03-15T18:14:09.091Z,98318.73
2019-03-15T18:16:36.873Z,98316.56
2019-03-15T18:19:07.058Z,98309.19
2019-03-15T18:21:34.933Z,98311.39
2019-03-15T18:24:02.752Z,98321.23
2019-03-15T18:26:30.559Z,98325.98
2019-03-15T18:28:58.634Z,98323.51
2019-03-15T18:31:26.440Z,98309.58
2019-03-15T18:33:54.282Z,98326.44
2019-03-15T18:36:22.159Z,98323.28
2019-03-15T18:38:49.951Z,98318.63
2019-03-15T18:41:17.771Z,98318.11
2019-03-15T18:43:45.585Z,98317.58
2019-03-15T18:46:13.458Z,98339.91
2019-03-15T18:48:41.272Z,98332.50
2019-03-15T18:51:09.131Z,98341.39
2019-03-15T18:53:36.892Z,98345.64
2019-03-15T18:56:05.783Z,98344.48
2019-03-15T18:58:33.629Z,98349.00
2019-03-15T19:01:01.460Z,98358.09
2019-03-15T19:03:29.245Z,98347.75
2019-03-15T19:05:57.042Z,98344.81
2019-03-15T19:08:24.830Z,98353.08
2019-03-15T19:10:52.681Z,98348.64
2019-03-15T19:13:23.504Z,98356.73
2019-03-15T19:15:51.552Z,98364.84
2019-03-15T19:18:19.443Z,98369.81
2019-03-15T19:20:47.422Z,98360.09
2019-03-15T19:23:15.238Z,98368.63
2019-03-15T19:25:43.054Z,98371.78
2019-03-15T19:28:10.897Z,98365.99
2019-03-15T19:30:38.703Z,98369.28
2019-03-15T19:33:06.513Z,98378.67
2019-03-15T19:35:34.326Z,98383.31
2019-03-15T19:38:02.138Z,98381.83
2019-03-15T19:40:30.031Z,98367.58
2019-03-15T19:42:57.971Z,98383.88
2019-03-15T19:45:25.789Z,98373.50
2019-03-15T19:47:53.862Z,98356.70
2019-03-15T19:50:21.655Z,98372.98
2019-03-15T19:52:49.587Z,98368.53
2019-03-15T19:55:17.471Z,98371.49
2019-03-15T19:57:45.494Z,98367.91
2019-03-15T20:00:14.239Z,98376.47
2019-03-15T20:02:42.170Z,98375.25
2019-03-15T20:05:10.203Z,98381.84
2019-03-15T20:07:38.189Z,98404.92
2019-03-15T20:10:07.792Z,98385.13
2019-03-15T20:12:35.559Z,98380.52
2019-03-15T20:15:03.829Z,98388.75
2019-03-15T20:17:31.735Z,98394.84
2019-03-15T20:19:59.578Z,98395.34
2019-03-15T20:22:27.444Z,98404.73
2019-03-15T20:24:55.266Z,98404.33
2019-03-15T20:27:28.690Z,98401.70
2019-03-15T20:29:56.539Z,98405.65
2019-03-15T20:32:24.449Z,98406.50
2019-03-15T20:34:52.599Z,98406.90
2019-03-15T20:37:20.622Z,98398.86
2019-03-15T20:39:48.497Z,98401.17
2019-03-15T20:42:16.349Z,98400.54
2019-03-15T20:44:44.242Z,98398.04
2019-03-15T20:47:12.159Z,98389.80
2019-03-15T20:49:42.809Z,98399.55
2019-03-15T20:52:10.654Z,98392.04
2019-03-15T20:54:38.473Z,98393.49
2019-03-15T20:57:06.296Z,98399.52
2019-03-15T20:59:34.491Z,98373.90
2019-03-15T21:02:02.345Z,98393.69
2019-03-15T21:04:30.214Z,98397.81
2019-03-15T21:06:58.039Z,98403.61
2019-03-15T21:09:25.803Z,98395.53
2019-03-15T21:11:53.685Z,98396.39
2019-03-15T21:14:21.548Z,98396.22
2019-03-15T21:16:49.345Z,98398.04
2019-03-15T21:19:17.141Z,98415.16
2019-03-15T21:21:44.975Z,98411.91
2019-03-15T21:24:12.792Z,98397.58
2019-03-15T21:26:40.653Z,98386.05
2019-03-15T21:29:11.723Z,98398.07
2019-03-15T21:31:38.208Z,98401.49
2019-03-15T21:34:08.352Z,98405.52
2019-03-15T21:36:36.218Z,98412.69
2019-03-15T21:39:06.843Z,98427.78
2019-03-15T21:41:34.688Z,98461.08
2019-03-15T21:44:03.781Z,98504.36
2019-03-15T21:46:31.597Z,98512.70
2019-03-15T21:48:59.573Z,98507.01
2019-03-15T21:51:27.384Z,98508.25
2019-03-15T21:53:55.190Z,98503.20
2019-03-15T21:56:23.878Z,98503.27
2019-03-15T21:58:51.719Z,98514.33
2019-03-15T22:01:19.528Z,98503.81
2019-03-15T22:03:47.325Z,98516.72
2019-03-15T22:06:15.144Z,98517.77
2019-03-15T22:08:43.096Z,98509.74
2019-03-15T22:11:20.397Z,98518.57
2019-03-15T22:13:43.437Z,98524.88
2019-03-15T22:16:11.207Z,98522.89
2019-03-15T22:18:39.134Z,98529.55
2019-03-15T22:21:06.924Z,98541.89
2019-03-15T22:23:34.799Z,98552.31
2019-03-15T22:26:02.773Z,98560.80
2019-03-15T22:28:30.817Z,98556.84
2019-03-15T22:30:58.615Z,98554.52
2019-03-15T22:33:26.460Z,98572.31
2019-03-15T22:35:54.228Z,98565.23
2019-03-15T22:38:26.604Z,98573.62
2019-03-15T22:40:51.978Z,98573.51
2019-03-15T22:43:19.843Z,98576.03
2019-03-15T22:45:47.669Z,98575.56
2019-03-15T22:48:15.500Z,98587.40
2019-03-15T22:50:43.339Z,98583.33
2019-03-15T22:53:11.137Z,98595.37
2019-03-15T22:55:38.957Z,98602.58
2019-03-15T22:58:06.736Z,98602.44
2019-03-15T23:00:36.430Z,98605.09
2019-03-15T23:03:04.698Z,98609.09
2019-03-15T23:05:32.562Z,98619.59
2019-03-15T23:08:00.410Z,98624.66
2019-03-15T23:10:28.160Z,98638.97
2019-03-15T23:12:55.991Z,98644.13
2019-03-15T23:15:23.934Z,98648.25
2019-03-15T23:17:51.860Z,98644.66
2019-03-15T23:20:19.662Z,98642.02
2019-03-15T23:22:47.429Z,98649.90
2019-03-15T23:25:15.228Z,98650.05
2019-03-15T23:27:43.264Z,98660.25
2019-03-15T23:30:11.286Z,98657.89
2019-03-15T23:32:39.108Z,98661.91
2019-03-15T23:35:06.920Z,98664.28
2019-03-15T23:37:34.933Z,98656.27
2019-03-15T23:40:02.769Z,98662.58
2019-03-15T23:42:30.513Z,98669.64
2019-03-15T23:44:58.314Z,98662.70
2019-03-15T23:47:26.310Z,98658.73
2019-03-15T23:49:54.119Z,98657.61
2019-03-15T23:52:21.871Z,98666.45
2019-03-15T23:54:49.704Z,98676.17
2019-03-15T23:57:17.643Z,98677.16
2019-03-15T23:59:45.452Z,98682.22
